createdAt,value
2023-05-19T00:00:19.672Z,7.18
2023-05-19T00:02:47.225Z,8.23
2023-05-19T00:05:14.892Z,7.75
2023-05-19T00:07:43.836Z,8.70
2023-05-19T00:10:12.165Z,8.23
2023-05-19T00:12:39.485Z,8.18
2023-05-19T00:15:09.824Z,8.38
2023-05-19T00:17:36.889Z,8.02
2023-05-19T00:20:04.469Z,8.35
2023-05-19T00:22:31.446Z,8.50
2023-05-19T00:24:58.435Z,8.52
2023-05-19T00:27:25.430Z,8.32
2023-05-19T00:29:52.448Z,9.10
2023-05-19T00:32:20.826Z,8.20
2023-05-19T00:34:47.792Z,8.70
2023-05-19T00:37:14.783Z,8.38
2023-05-19T00:39:41.726Z,8.60
2023-05-19T00:42:09.558Z,9.13
2023-05-19T00:44:39.986Z,8.35
2023-05-19T00:47:07.248Z,9.07
2023-05-19T00:49:35.983Z,7.88
2023-05-19T00:52:03.296Z,9.23
2023-05-19T00:54:30.500Z,8.88
2023-05-19T00:56:58.950Z,8.30
2023-05-19T00:59:26.227Z,8.75
2023-05-19T01:01:53.595Z,8.77
2023-05-19T01:04:21.227Z,8.30
2023-05-19T01:06:49.807Z,8.38
2023-05-19T01:09:17.362Z,8.82
2023-05-19T01:11:44.298Z,8.77
2023-05-19T01:14:11.406Z,8.57
2023-05-19T01:16:43.263Z,8.45
2023-05-19T01:19:37.346Z,8.68
2023-05-19T01:22:22.894Z,9.48
2023-05-19T01:25:15.894Z,9.20
2023-05-19T01:28:02.885Z,9.07
2023-05-19T01:30:37.055Z,9.05
2023-05-19T01:33:07.915Z,9.37
2023-05-19T01:35:36.797Z,9.43
2023-05-19T01:38:07.597Z,10.07
2023-05-19T01:40:37.373Z,9.48
2023-05-19T01:43:04.843Z,10.23
2023-05-19T01:45:34.300Z,10.00
2023-05-19T01:48:04.333Z,10.25
2023-05-19T01:50:32.725Z,10.25
2023-05-19T01:53:00.630Z,10.07
2023-05-19T01:55:28.063Z,10.68
2023-05-19T01:58:06.806Z,10.35
2023-05-19T02:00:47.689Z,10.73
2023-05-19T02:03:30.018Z,10.02
2023-05-19T02:06:11.843Z,10.70
2023-05-19T02:08:42.845Z,10.27
2023-05-19T02:11:14.494Z,10.95
2023-05-19T02:13:44.465Z,10.52
2023-05-19T02:16:14.293Z,9.95
2023-05-19T02:18:41.383Z,10.23
2023-05-19T02:21:08.494Z,9.68
2023-05-19T02:23:35.494Z,10.25
2023-05-19T02:26:02.488Z,10.27
2023-05-19T02:28:29.442Z,9.95
2023-05-19T02:30:56.429Z,9.73
2023-05-19T02:33:24.817Z,10.20
2023-05-19T02:35:51.867Z,10.50
2023-05-19T02:38:18.841Z,10.02
2023-05-19T02:40:46.064Z,10.45
2023-05-19T02:43:13.094Z,9.52
2023-05-19T02:45:40.080Z,10.60
2023-05-19T02:48:07.089Z,11.00
2023-05-19T02:50:35.819Z,11.15
2023-05-19T02:53:03.952Z,10.50
2023-05-19T02:55:30.913Z,10.38
2023-05-19T02:57:57.883Z,11.07
2023-05-19T03:00:24.882Z,12.10
2023-05-19T03:02:51.880Z,11.07
2023-05-19T03:05:19.184Z,11.23
2023-05-19T03:07:47.510Z,10.75
2023-05-19T03:10:14.497Z,11.90
2023-05-19T03:12:41.476Z,10.93
2023-05-19T03:15:09.217Z,11.10
2023-05-19T03:17:36.223Z,11.38
2023-05-19T03:20:03.558Z,12.32
2023-05-19T03:22:30.523Z,11.05
2023-05-19T03:24:58.937Z,11.88
2023-05-19T03:27:25.952Z,12.90
2023-05-19T03:29:52.956Z,12.10
2023-05-19T03:32:19.931Z,12.18
2023-05-19T03:34:46.949Z,11.93
2023-05-19T03:37:13.950Z,11.65
2023-05-19T03:39:40.909Z,13.30
2023-05-19T03:42:09.341Z,12.73
2023-05-19T03:44:36.341Z,12.13
2023-05-19T03:47:03.276Z,11.80
2023-05-19T03:49:30.242Z,12.05
2023-05-19T03:51:57.321Z,11.57
2023-05-19T03:54:24.311Z,11.73
2023-05-19T03:56:51.512Z,12.73
2023-05-19T03:59:19.849Z,11.70
2023-05-19T04:01:46.893Z,12.68
2023-05-19T04:04:13.907Z,12.88
2023-05-19T04:06:40.890Z,12.10
2023-05-19T04:09:12.239Z,12.68
2023-05-19T04:11:39.328Z,12.00
2023-05-19T04:14:06.303Z,12.40
2023-05-19T04:16:34.988Z,12.20
2023-05-19T04:19:02.121Z,12.60
2023-05-19T04:21:29.106Z,12.50
2023-05-19T04:23:56.037Z,12.82
2023-05-19T04:26:23.068Z,12.35
2023-05-19T04:28:50.037Z,12.70
2023-05-19T04:31:17.034Z,12.38
2023-05-19T04:33:45.441Z,13.30
2023-05-19T04:36:12.390Z,13.00
2023-05-19T04:38:39.904Z,13.85
2023-05-19T04:41:06.936Z,13.15
2023-05-19T04:43:33.901Z,13.13
2023-05-19T04:46:01.038Z,13.45
2023-05-19T04:48:28.061Z,12.93
2023-05-19T04:50:56.387Z,13.52
2023-05-19T04:53:23.331Z,13.07
2023-05-19T04:55:50.369Z,13.48
2023-05-19T04:58:17.456Z,13.93
2023-05-19T05:00:44.474Z,12.70
2023-05-19T05:03:11.480Z,13.93
2023-05-19T05:05:38.517Z,14.20
2023-05-19T05:08:10.805Z,13.93
2023-05-19T05:10:37.793Z,14.15
2023-05-19T05:13:05.355Z,13.35
2023-05-19T05:15:32.690Z,15.07
2023-05-19T05:18:00.234Z,14.45
2023-05-19T05:20:28.067Z,14.32
2023-05-19T05:22:55.555Z,15.23
2023-05-19T05:25:24.809Z,15.15
2023-05-19T05:27:51.861Z,14.57
2023-05-19T05:30:18.971Z,14.77
2023-05-19T05:32:46.043Z,15.07
2023-05-19T05:35:13.145Z,14.48
2023-05-19T05:37:40.103Z,14.40
2023-05-19T05:40:08.936Z,15.07
2023-05-19T05:42:37.302Z,15.30
2023-05-19T05:45:05.081Z,14.80
2023-05-19T05:47:32.823Z,14.65
2023-05-19T05:50:00.370Z,14.02
2023-05-19T05:52:30.622Z,14.75
2023-05-19T05:54:58.280Z,14.90
2023-05-19T05:57:25.196Z,15.20
2023-05-19T05:59:53.551Z,14.50
2023-05-19T06:02:20.605Z,15.18
2023-05-19T06:04:47.833Z,15.18
2023-05-19T06:07:14.792Z,14.55
2023-05-19T06:09:41.805Z,14.68
2023-05-19T06:12:09.082Z,14.05
2023-05-19T06:14:36.060Z,12.73
2023-05-19T06:17:04.645Z,12.93
2023-05-19T06:19:32.892Z,12.90
2023-05-19T06:22:00.062Z,12.45
2023-05-19T06:24:27.119Z,12.48
2023-05-19T06:26:54.088Z,11.20
2023-05-19T06:29:21.028Z,11.70
2023-05-19T06:31:48.110Z,11.70
2023-05-19T06:34:16.471Z,12.02
2023-05-19T06:36:43.458Z,11.55
2023-05-19T06:39:10.435Z,12.02
2023-05-19T06:41:37.388Z,11.82
2023-05-19T06:44:04.550Z,12.05
2023-05-19T06:46:31.651Z,12.77
2023-05-19T06:48:58.796Z,12.63
2023-05-19T06:51:27.224Z,12.65
2023-05-19T06:53:54.298Z,13.00
2023-05-19T06:56:21.292Z,11.93
2023-05-19T06:58:48.312Z,11.45
2023-05-19T07:01:15.340Z,12.10
2023-05-19T07:03:42.443Z,11.93
2023-05-19T07:06:09.577Z,12.25
2023-05-19T07:08:38.001Z,12.23
2023-05-19T07:11:05.594Z,11.20
2023-05-19T07:13:32.566Z,11.45
2023-05-19T07:15:59.618Z,12.05
2023-05-19T07:18:26.694Z,10.88
2023-05-19T07:20:53.658Z,11.32
2023-05-19T07:23:20.681Z,11.00
2023-05-19T07:25:49.188Z,11.40
2023-05-19T07:28:16.119Z,11.20
2023-05-19T07:30:43.360Z,11.20
2023-05-19T07:33:10.540Z,11.10
2023-05-19T07:35:37.629Z,11.77
2023-05-19T07:38:04.680Z,11.80
2023-05-19T07:40:31.949Z,12.00
2023-05-19T07:43:00.487Z,11.15
2023-05-19T07:45:27.471Z,10.95
2023-05-19T07:47:54.725Z,10.80
2023-05-19T07:50:21.753Z,10.98
2023-05-19T07:52:48.794Z,11.30
2023-05-19T07:55:16.309Z,10.45
2023-05-19T07:57:43.339Z,10.43
2023-05-19T08:00:13.035Z,11.35
2023-05-19T08:02:40.084Z,10.73
2023-05-19T08:05:08.160Z,10.43
2023-05-19T08:07:35.233Z,10.65
2023-05-19T08:10:02.566Z,10.50
2023-05-19T08:12:29.725Z,10.02
2023-05-19T08:14:58.186Z,9.48
2023-05-19T08:17:28.106Z,10.07
2023-05-19T08:19:55.090Z,9.48
2023-05-19T08:22:22.102Z,9.75
2023-05-19T08:24:49.196Z,8.18
2023-05-19T08:27:16.138Z,8.73
2023-05-19T08:29:43.249Z,7.88
2023-05-19T08:32:12.952Z,7.40
2023-05-19T08:34:41.708Z,7.32
2023-05-19T08:37:08.895Z,7.10
2023-05-19T08:39:35.872Z,7.28
2023-05-19T08:42:02.989Z,6.25
2023-05-19T08:44:30.189Z,6.75
2023-05-19T08:47:01.149Z,7.43
2023-05-19T08:49:30.672Z,6.50
2023-05-19T08:52:08.033Z,6.97
2023-05-19T08:54:41.618Z,7.47
2023-05-19T08:57:08.895Z,8.32
2023-05-19T08:59:36.395Z,6.75
2023-05-19T09:02:04.459Z,6.30
2023-05-19T09:04:32.113Z,6.35
2023-05-19T09:07:00.469Z,6.05
2023-05-19T09:09:27.801Z,5.53
2023-05-19T09:11:55.029Z,5.18
2023-05-19T09:14:22.871Z,4.65
2023-05-19T09:16:50.081Z,4.38
2023-05-19T09:19:17.206Z,4.25
2023-05-19T09:21:44.674Z,3.88
2023-05-19T09:24:13.323Z,3.72
2023-05-19T09:26:41.855Z,3.47
2023-05-19T09:29:12.405Z,3.85
2023-05-19T09:31:39.517Z,3.00
2023-05-19T09:34:13.145Z,3.33
2023-05-19T09:36:40.658Z,2.63
2023-05-19T09:39:15.065Z,3.28
2023-05-19T09:41:42.192Z,3.10
2023-05-19T09:44:13.263Z,2.88
2023-05-19T09:46:48.010Z,2.83
2023-05-19T09:49:19.507Z,2.80
2023-05-19T09:51:46.514Z,3.25
2023-05-19T09:54:16.859Z,2.90
2023-05-19T09:56:43.913Z,3.05
2023-05-19T09:59:11.816Z,2.70
2023-05-19T10:01:39.160Z,3.50
2023-05-19T10:04:06.327Z,2.95
2023-05-19T10:06:34.454Z,2.83
2023-05-19T10:09:01.709Z,3.58
2023-05-19T10:11:30.603Z,3.38
2023-05-19T10:13:58.372Z,3.80
2023-05-19T10:16:26.574Z,4.50
2023-05-19T10:18:55.325Z,2.78
2023-05-19T10:21:22.300Z,3.28
2023-05-19T10:23:49.315Z,3.70
2023-05-19T10:26:16.622Z,3.22
2023-05-19T10:28:45.782Z,2.88
2023-05-19T10:31:18.570Z,3.00
2023-05-19T10:34:05.505Z,3.35
2023-05-19T10:36:44.608Z,3.40
2023-05-19T10:39:17.415Z,3.35
2023-05-19T10:41:51.221Z,3.20
2023-05-19T10:44:28.240Z,3.17
2023-05-19T10:46:56.755Z,3.33
2023-05-19T10:49:24.365Z,3.45
2023-05-19T10:51:55.251Z,3.33
2023-05-19T10:54:40.114Z,3.30
2023-05-19T10:57:07.955Z,3.55
2023-05-19T10:59:37.203Z,3.63
2023-05-19T11:02:05.416Z,3.40
2023-05-19T11:04:49.567Z,3.78
2023-05-19T11:07:19.136Z,3.67
2023-05-19T11:09:50.325Z,4.40
2023-05-19T11:12:20.626Z,3.60
2023-05-19T11:14:52.118Z,3.78
2023-05-19T11:17:19.861Z,3.80
2023-05-19T11:19:53.972Z,3.75
2023-05-19T11:22:24.273Z,3.70
2023-05-19T11:24:51.475Z,4.15
2023-05-19T11:27:25.124Z,4.13
2023-05-19T11:29:54.534Z,3.85
2023-05-19T11:32:22.756Z,3.97
2023-05-19T11:34:49.995Z,3.95
2023-05-19T11:37:17.103Z,4.10
2023-05-19T11:39:46.234Z,4.40
2023-05-19T11:42:13.625Z,28.52
2023-05-19T11:44:40.880Z,4.72
2023-05-19T11:47:09.580Z,4.85
2023-05-19T11:49:36.835Z,4.13
2023-05-19T11:52:04.943Z,3.70
2023-05-19T11:54:32.856Z,4.47
2023-05-19T11:57:01.341Z,4.13
2023-05-19T11:59:33.480Z,4.22
2023-05-19T12:02:03.873Z,4.40
2023-05-19T12:04:32.425Z,4.50
2023-05-19T12:07:00.032Z,3.97
2023-05-19T12:09:28.825Z,4.30
2023-05-19T12:11:55.868Z,4.07
2023-05-19T12:14:23.168Z,4.47
2023-05-19T12:16:50.327Z,4.22
2023-05-19T12:19:17.560Z,4.18
2023-05-19T12:21:46.138Z,4.28
2023-05-19T12:24:13.454Z,4.20
2023-05-19T12:26:41.023Z,5.45
2023-05-19T12:29:08.080Z,3.92
2023-05-19T12:31:35.224Z,4.10
2023-05-19T12:34:02.509Z,4.90
2023-05-19T12:36:29.492Z,5.00
2023-05-19T12:38:58.367Z,4.35
2023-05-19T12:41:25.857Z,3.90
2023-05-19T12:43:53.206Z,4.00
2023-05-19T12:46:20.429Z,4.70
2023-05-19T12:48:47.532Z,6.35
2023-05-19T12:51:17.797Z,9.45
2023-05-19T12:53:45.605Z,6.25
2023-05-19T12:56:15.092Z,3.80
2023-05-19T12:58:42.356Z,4.50
2023-05-19T13:01:16.354Z,4.43
2023-05-19T13:03:43.844Z,4.03
2023-05-19T13:06:11.177Z,4.32
2023-05-19T13:08:38.854Z,4.32
2023-05-19T13:11:05.889Z,4.15
2023-05-19T13:13:34.370Z,4.53
2023-05-19T13:16:01.837Z,3.63
2023-05-19T13:18:28.963Z,3.10
2023-05-19T13:20:55.922Z,3.25
2023-05-19T13:23:23.063Z,3.47
2023-05-19T13:25:50.113Z,3.75
2023-05-19T13:28:17.178Z,3.42
2023-05-19T13:30:45.923Z,4.00
2023-05-19T13:33:12.980Z,3.90
2023-05-19T13:35:40.267Z,3.85
2023-05-19T13:38:08.602Z,3.47
2023-05-19T13:40:35.949Z,3.30
2023-05-19T13:43:04.036Z,3.38
2023-05-19T13:45:31.196Z,2.70
2023-05-19T13:47:59.673Z,2.90
2023-05-19T13:50:26.792Z,3.33
2023-05-19T13:52:53.825Z,3.25
2023-05-19T13:55:21.732Z,3.25
2023-05-19T13:57:48.758Z,3.03
2023-05-19T14:00:16.685Z,3.65
2023-05-19T14:02:43.811Z,3.17
2023-05-19T14:05:12.223Z,3.10
2023-05-19T14:07:39.303Z,3.47
2023-05-19T14:10:07.453Z,3.42
2023-05-19T14:12:49.525Z,3.25
2023-05-19T14:15:23.163Z,3.53
2023-05-19T14:17:50.155Z,3.47
2023-05-19T14:20:18.923Z,3.13
2023-05-19T14:22:45.962Z,3.75
2023-05-19T14:25:12.952Z,3.40
2023-05-19T14:27:40.298Z,3.55
2023-05-19T14:30:08.912Z,3.38
2023-05-19T14:32:35.994Z,4.60
2023-05-19T14:35:03.327Z,3.13
2023-05-19T14:37:32.215Z,3.63
2023-05-19T14:39:59.560Z,3.90
2023-05-19T14:42:26.573Z,3.80
2023-05-19T14:44:53.552Z,3.42
2023-05-19T14:47:20.519Z,3.28
2023-05-19T14:49:47.838Z,3.13
2023-05-19T14:52:15.221Z,3.28
2023-05-19T14:54:43.709Z,2.72
2023-05-19T14:57:10.761Z,3.35
2023-05-19T14:59:38.246Z,2.95
2023-05-19T15:02:05.659Z,3.17
2023-05-19T15:04:32.660Z,3.40
2023-05-19T15:07:09.640Z,3.28
2023-05-19T15:09:37.570Z,3.15
2023-05-19T15:12:06.317Z,3.25
2023-05-19T15:14:33.306Z,3.30
2023-05-19T15:17:00.402Z,2.95
2023-05-19T15:19:27.440Z,3.30
2023-05-19T15:21:54.531Z,3.30
2023-05-19T15:24:21.696Z,2.85
2023-05-19T15:26:48.912Z,3.17
2023-05-19T15:29:17.382Z,2.92
2023-05-19T15:31:44.463Z,2.92
2023-05-19T15:34:11.596Z,2.88
2023-05-19T15:36:38.589Z,3.08
2023-05-19T15:39:05.625Z,3.30
2023-05-19T15:41:32.634Z,3.33
2023-05-19T15:43:59.728Z,3.55
2023-05-19T15:46:28.191Z,3.20
2023-05-19T15:48:55.647Z,3.05
2023-05-19T15:51:22.729Z,3.50
2023-05-19T15:53:49.821Z,3.55
2023-05-19T15:56:17.129Z,2.80
2023-05-19T15:58:44.057Z,3.22
2023-05-19T16:01:11.615Z,3.00
2023-05-19T16:03:40.123Z,3.00
2023-05-19T16:06:07.106Z,3.42
2023-05-19T16:08:34.056Z,2.92
2023-05-19T16:11:01.038Z,3.20
2023-05-19T16:13:27.980Z,3.20
2023-05-19T16:15:55.045Z,2.97
2023-05-19T16:18:22.503Z,3.30
2023-05-19T16:20:50.875Z,3.17
2023-05-19T16:23:17.883Z,2.75
2023-05-19T16:25:44.884Z,3.15
2023-05-19T16:28:11.808Z,2.95
2023-05-19T16:30:38.774Z,3.20
2023-05-19T16:33:05.804Z,3.10
2023-05-19T16:35:32.846Z,3.03
2023-05-19T16:38:01.157Z,2.88
2023-05-19T16:40:30.697Z,3.25
2023-05-19T16:42:58.201Z,3.03
2023-05-19T16:45:25.202Z,3.20
2023-05-19T16:47:52.222Z,3.08
2023-05-19T16:50:19.358Z,2.97
2023-05-19T16:52:46.429Z,3.10
2023-05-19T16:55:15.010Z,3.00
2023-05-19T16:57:45.744Z,2.88
2023-05-19T17:00:13.749Z,3.20
2023-05-19T17:02:40.980Z,3.28
2023-05-19T17:05:08.962Z,2.90
2023-05-19T17:07:35.957Z,3.08
2023-05-19T17:10:03.047Z,2.92
2023-05-19T17:12:31.437Z,3.33
2023-05-19T17:14:58.410Z,3.03
2023-05-19T17:17:25.516Z,3.03
2023-05-19T17:19:52.585Z,3.35
2023-05-19T17:22:19.594Z,2.80
2023-05-19T17:24:46.930Z,3.35
2023-05-19T17:27:13.947Z,3.13
2023-05-19T17:29:42.268Z,3.15
2023-05-19T17:32:09.307Z,3.03
2023-05-19T17:34:36.353Z,3.03
2023-05-19T17:37:03.442Z,3.33
2023-05-19T17:39:30.455Z,2.70
2023-05-19T17:41:57.406Z,3.03
2023-05-19T17:44:24.473Z,3.22
2023-05-19T17:46:52.956Z,2.80
2023-05-19T17:49:20.028Z,3.05
2023-05-19T17:51:48.828Z,3.08
2023-05-19T17:54:16.648Z,3.05
2023-05-19T17:56:45.251Z,2.75
2023-05-19T17:59:12.707Z,3.03
2023-05-19T18:01:40.246Z,3.25
2023-05-19T18:04:13.221Z,3.60
2023-05-19T18:06:44.844Z,3.13
2023-05-19T18:09:14.026Z,2.92
2023-05-19T18:11:41.010Z,3.25
2023-05-19T18:14:08.123Z,3.33
2023-05-19T18:16:35.144Z,3.50
2023-05-19T18:19:02.803Z,3.28
2023-05-19T18:21:31.378Z,2.95
2023-05-19T18:23:58.315Z,3.60
2023-05-19T18:26:25.337Z,4.07
2023-05-19T18:28:52.288Z,3.40
2023-05-19T18:31:19.608Z,3.08
2023-05-19T18:33:47.048Z,3.00
2023-05-19T18:36:14.516Z,3.20
2023-05-19T18:38:42.842Z,3.25
2023-05-19T18:41:09.943Z,3.13
2023-05-19T18:43:36.901Z,3.20
2023-05-19T18:46:04.045Z,3.63
2023-05-19T18:48:31.102Z,3.50
2023-05-19T18:50:58.364Z,3.80
2023-05-19T18:53:25.387Z,3.00
2023-05-19T18:55:53.696Z,3.22
2023-05-19T18:58:20.724Z,3.55
2023-05-19T19:00:47.702Z,3.70
2023-05-19T19:03:14.636Z,3.10
2023-05-19T19:05:41.782Z,4.25
2023-05-19T19:08:08.718Z,2.80
2023-05-19T19:10:35.987Z,3.45
2023-05-19T19:13:04.668Z,3.45
2023-05-19T19:15:31.670Z,3.00
2023-05-19T19:17:58.711Z,3.38
2023-05-19T19:20:25.759Z,3.72
2023-05-19T19:22:52.679Z,3.65
2023-05-19T19:25:21.274Z,3.10
2023-05-19T19:27:49.669Z,3.53
2023-05-19T19:30:18.477Z,3.90
2023-05-19T19:32:45.699Z,3.78
2023-05-19T19:35:12.850Z,4.00
2023-05-19T19:37:39.844Z,3.50
2023-05-19T19:40:07.829Z,3.63
2023-05-19T19:42:34.978Z,3.53
2023-05-19T19:45:02.010Z,3.72
2023-05-19T19:47:30.385Z,3.50
2023-05-19T19:49:57.388Z,3.65
2023-05-19T19:52:24.582Z,3.55
2023-05-19T19:54:51.556Z,4.05
2023-05-19T19:57:18.551Z,3.75
2023-05-19T19:59:45.596Z,3.72
2023-05-19T20:02:12.624Z,4.10
2023-05-19T20:04:41.113Z,3.80
2023-05-19T20:07:08.072Z,4.13
2023-05-19T20:09:35.035Z,4.03
2023-05-19T20:12:02.036Z,3.65
2023-05-19T20:14:29.020Z,4.20
2023-05-19T20:16:56.090Z,4.18
2023-05-19T20:19:23.164Z,4.05
2023-05-19T20:21:51.692Z,4.60
2023-05-19T20:24:18.694Z,3.90
2023-05-19T20:26:45.735Z,4.45
2023-05-19T20:29:12.720Z,3.78
2023-05-19T20:31:39.645Z,4.03
2023-05-19T20:34:06.802Z,3.90
2023-05-19T20:36:33.744Z,3.88
2023-05-19T20:39:02.025Z,3.90
2023-05-19T20:41:29.037Z,3.90
2023-05-19T20:43:55.996Z,4.00
2023-05-19T20:46:22.977Z,4.03
2023-05-19T20:48:50.016Z,3.90
2023-05-19T20:51:17.255Z,4.50
2023-05-19T20:53:44.237Z,4.28
2023-05-19T20:56:12.926Z,4.30
2023-05-19T20:58:39.945Z,4.45
2023-05-19T21:01:06.995Z,4.40
2023-05-19T21:03:34.050Z,4.15
2023-05-19T21:06:00.998Z,4.22
2023-05-19T21:08:28.092Z,4.47
2023-05-19T21:10:55.180Z,4.70
2023-05-19T21:13:23.557Z,4.45
2023-05-19T21:15:50.690Z,4.13
2023-05-19T21:18:17.977Z,4.32
2023-05-19T21:20:44.988Z,3.85
2023-05-19T21:23:12.221Z,4.38
2023-05-19T21:25:40.117Z,3.92
2023-05-19T21:28:07.077Z,3.80
2023-05-19T21:30:35.630Z,4.13
2023-05-19T21:33:02.762Z,3.88
2023-05-19T21:35:29.793Z,4.18
2023-05-19T21:37:56.750Z,4.45
2023-05-19T21:40:23.782Z,4.03
2023-05-19T21:42:53.916Z,4.60
2023-05-19T21:45:20.966Z,4.45
2023-05-19T21:47:49.372Z,4.57
2023-05-19T21:50:16.673Z,4.35
2023-05-19T21:52:43.690Z,4.65
2023-05-19T21:55:10.777Z,4.18
2023-05-19T21:57:37.857Z,4.60
2023-05-19T22:00:05.902Z,4.45
2023-05-19T22:02:32.872Z,4.43
2023-05-19T22:05:01.338Z,4.03
2023-05-19T22:07:28.287Z,4.35
2023-05-19T22:09:55.303Z,4.40
2023-05-19T22:12:22.707Z,4.15
2023-05-19T22:14:49.690Z,4.07
2023-05-19T22:17:16.690Z,4.43
2023-05-19T22:19:43.726Z,4.32
2023-05-19T22:22:14.261Z,4.55
2023-05-19T22:24:41.940Z,4.38
2023-05-19T22:27:09.370Z,4.28
2023-05-19T22:29:36.937Z,4.22
2023-05-19T22:32:04.510Z,5.18
2023-05-19T22:34:31.578Z,5.40
2023-05-19T22:36:58.637Z,5.03
2023-05-19T22:39:27.005Z,4.90
2023-05-19T22:41:54.100Z,4.90
2023-05-19T22:44:21.042Z,5.10
2023-05-19T22:46:48.058Z,4.95
2023-05-19T22:49:15.055Z,4.50
2023-05-19T22:51:42.101Z,4.70
2023-05-19T22:54:09.112Z,5.30
2023-05-19T22:56:37.540Z,4.90
2023-05-19T22:59:04.520Z,5.18
2023-05-19T23:01:31.717Z,5.47
2023-05-19T23:03:58.996Z,5.07
2023-05-19T23:06:26.002Z,5.32
2023-05-19T23:08:59.087Z,5.13
2023-05-19T23:11:26.049Z,4.78
2023-05-19T23:13:54.484Z,4.97
2023-05-19T23:16:21.497Z,4.53
2023-05-19T23:18:48.553Z,5.20
2023-05-19T23:21:15.671Z,4.97
2023-05-19T23:23:42.697Z,5.07
2023-05-19T23:26:09.688Z,5.40
2023-05-19T23:28:36.754Z,5.00
2023-05-19T23:31:05.147Z,4.95
2023-05-19T23:33:32.174Z,5.28
2023-05-19T23:35:59.427Z,5.13
2023-05-19T23:38:26.483Z,5.22
2023-05-19T23:40:53.468Z,5.40
2023-05-19T23:43:20.714Z,5.75
2023-05-19T23:45:47.684Z,5.45
2023-05-19T23:48:16.066Z,6.07
2023-05-19T23:50:43.123Z,5.97
2023-05-19T23:53:10.061Z,5.90
2023-05-19T23:55:37.107Z,6.13
2023-05-19T23:58:04.072Z,5.78
